createdAt,value
2018-05-10T00:01:48.966Z,100.00
2018-05-10T00:04:18.104Z,100.00
2018-05-10T00:06:47.300Z,100.00
2018-05-10T00:09:16.308Z,99.22
2018-05-10T00:11:45.523Z,100.00
2018-05-10T00:14:14.520Z,100.00
2018-05-10T00:16:43.652Z,100.00
2018-05-10T00:19:12.847Z,100.00
2018-05-10T00:21:41.969Z,99.71
2018-05-10T00:24:11.016Z,99.18
2018-05-10T00:26:40.202Z,98.67
2018-05-10T00:29:09.565Z,98.88
2018-05-10T00:31:38.865Z,95.16
2018-05-10T00:34:07.955Z,96.92
2018-05-10T00:36:37.052Z,97.93
2018-05-10T00:39:06.468Z,97.38
2018-05-10T00:41:35.700Z,96.48
2018-05-10T00:44:04.760Z,96.80
2018-05-10T00:46:34.203Z,96.92
2018-05-10T00:49:03.504Z,96.98
2018-05-10T00:51:32.676Z,97.00
2018-05-10T00:54:01.700Z,97.25
2018-05-10T00:56:30.884Z,97.70
2018-05-10T00:58:59.992Z,98.10
2018-05-10T01:01:29.185Z,95.97
2018-05-10T01:03:58.499Z,94.46
2018-05-10T01:06:27.549Z,93.15
2018-05-10T01:08:56.998Z,93.88
2018-05-10T01:11:26.156Z,94.69
2018-05-10T01:13:55.113Z,95.43
2018-05-10T01:16:24.473Z,95.35
2018-05-10T01:18:53.817Z,95.19
2018-05-10T01:21:23.081Z,95.82
2018-05-10T01:23:52.187Z,95.63
2018-05-10T01:26:21.212Z,94.38
2018-05-10T01:28:50.393Z,94.53
2018-05-10T01:31:19.699Z,94.09
2018-05-10T01:33:48.874Z,94.09
2018-05-10T01:36:18.190Z,92.53
2018-05-10T01:38:47.284Z,91.44
2018-05-10T01:41:16.320Z,92.01
2018-05-10T01:43:45.729Z,93.24
2018-05-10T01:46:14.847Z,93.82
2018-05-10T01:48:44.192Z,93.87
2018-05-10T01:51:13.637Z,91.70
2018-05-10T01:53:42.814Z,91.03
2018-05-10T01:56:12.081Z,92.26
2018-05-10T01:58:41.090Z,91.92
2018-05-10T02:01:10.088Z,92.83
2018-05-10T02:03:39.649Z,91.64
2018-05-10T02:06:09.042Z,89.46
2018-05-10T02:08:38.211Z,91.80
2018-05-10T02:11:08.210Z,92.94
2018-05-10T02:13:37.381Z,92.79
2018-05-10T02:16:07.239Z,90.58
2018-05-10T02:18:36.508Z,91.23
2018-05-10T02:21:06.029Z,90.51
2018-05-10T02:23:35.331Z,90.99
2018-05-10T02:26:04.840Z,89.99
2018-05-10T02:28:33.984Z,91.63
2018-05-10T02:31:02.997Z,92.81
2018-05-10T02:33:32.260Z,92.20
2018-05-10T02:36:01.415Z,93.33
2018-05-10T02:38:30.710Z,93.08
2018-05-10T02:40:59.816Z,93.50
2018-05-10T02:43:28.952Z,92.92
2018-05-10T02:45:58.509Z,93.27
2018-05-10T02:48:27.852Z,92.96
2018-05-10T02:50:57.123Z,93.63
2018-05-10T02:53:26.152Z,92.98
2018-05-10T02:55:55.408Z,93.09
2018-05-10T02:58:24.730Z,93.03
2018-05-10T03:00:54.309Z,92.91
2018-05-10T03:03:23.826Z,92.86
2018-05-10T03:05:53.190Z,91.56
2018-05-10T03:08:22.280Z,89.40
2018-05-10T03:10:52.088Z,92.43
2018-05-10T03:13:21.040Z,93.80
2018-05-10T03:15:50.147Z,93.52
2018-05-10T03:18:19.133Z,92.42
2018-05-10T03:20:48.544Z,91.60
2018-05-10T03:23:17.819Z,90.80
2018-05-10T03:25:47.436Z,91.20
2018-05-10T03:28:16.961Z,92.46
2018-05-10T03:30:46.365Z,92.68
2018-05-10T03:33:15.403Z,91.55
2018-05-10T03:35:44.837Z,92.44
2018-05-10T03:38:13.984Z,92.14
2018-05-10T03:40:43.189Z,93.05
2018-05-10T03:43:12.510Z,90.78
2018-05-10T03:45:41.642Z,91.39
2018-05-10T03:48:11.116Z,92.63
2018-05-10T03:50:40.570Z,92.07
2018-05-10T03:53:09.686Z,89.20
2018-05-10T03:55:38.813Z,92.32
2018-05-10T03:58:08.016Z,93.39
2018-05-10T04:00:37.306Z,92.32
2018-05-10T04:06:26.147Z,90.77
2018-05-10T04:09:06.600Z,92.56
2018-05-10T04:11:35.585Z,90.60
2018-05-10T04:14:04.880Z,92.07
2018-05-10T04:16:34.083Z,92.30
2018-05-10T04:19:03.160Z,92.11
2018-05-10T04:21:32.249Z,92.85
2018-05-10T04:24:01.483Z,91.08
2018-05-10T04:26:30.776Z,90.76
2018-05-10T04:29:00.302Z,89.72
2018-05-10T04:31:29.408Z,89.29
2018-05-10T04:33:58.475Z,92.38
2018-05-10T04:36:27.544Z,91.48
2018-05-10T04:38:56.504Z,93.91
2018-05-10T04:41:25.512Z,95.04
2018-05-10T04:43:54.867Z,94.41
2018-05-10T04:46:23.849Z,94.42
2018-05-10T04:48:52.825Z,94.52
2018-05-10T04:51:22.033Z,94.37
2018-05-10T04:53:51.368Z,94.25
2018-05-10T04:56:20.646Z,94.26
2018-05-10T04:58:49.672Z,93.27
2018-05-10T05:01:18.844Z,93.03
2018-05-10T05:03:48.123Z,92.63
2018-05-10T05:06:17.333Z,89.42
2018-05-10T05:08:46.758Z,86.70
2018-05-10T05:11:15.924Z,89.87
2018-05-10T05:13:44.944Z,88.84
2018-05-10T05:16:13.929Z,89.54
2018-05-10T05:18:43.096Z,89.09
2018-05-10T05:21:12.104Z,87.48
2018-05-10T05:23:41.461Z,87.82
2018-05-10T05:26:10.851Z,86.49
2018-05-10T05:28:39.924Z,85.08
2018-05-10T05:31:08.970Z,86.68
2018-05-10T05:33:38.100Z,86.15
2018-05-10T05:36:07.414Z,86.25
2018-05-10T05:38:36.592Z,86.92
2018-05-10T05:41:05.691Z,85.80
2018-05-10T05:43:35.129Z,85.87
2018-05-10T05:46:04.334Z,85.69
2018-05-10T05:48:33.446Z,85.43
2018-05-10T05:51:02.790Z,83.42
2018-05-10T05:53:31.823Z,81.46
2018-05-10T05:56:01.016Z,81.73
2018-05-10T05:58:30.422Z,81.44
2018-05-10T06:00:59.510Z,82.56
2018-05-10T06:03:28.796Z,81.96
2018-05-10T06:05:58.084Z,77.28
2018-05-10T06:08:27.381Z,76.65
2018-05-10T06:10:56.614Z,81.48
2018-05-10T06:13:25.896Z,81.84
2018-05-10T06:15:55.345Z,83.40
2018-05-10T06:18:24.602Z,79.88
2018-05-10T06:20:53.620Z,83.83
2018-05-10T06:23:23.041Z,85.44
2018-05-10T06:25:52.263Z,85.31
2018-05-10T06:28:21.514Z,83.75
2018-05-10T06:30:50.656Z,84.12
2018-05-10T06:33:19.776Z,81.88
2018-05-10T06:35:48.932Z,83.18
2018-05-10T06:38:18.159Z,81.24
2018-05-10T06:40:47.533Z,82.91
2018-05-10T06:43:16.822Z,83.00
2018-05-10T06:45:46.593Z,79.37
2018-05-10T06:48:15.668Z,81.98
2018-05-10T06:50:44.928Z,81.16
2018-05-10T06:53:14.453Z,80.92
2018-05-10T06:55:44.821Z,82.20
2018-05-10T06:58:14.043Z,81.92
2018-05-10T07:00:43.064Z,79.58
2018-05-10T07:03:12.568Z,78.60
2018-05-10T07:05:41.736Z,77.21
2018-05-10T07:08:10.891Z,72.54
2018-05-10T07:10:39.892Z,69.93
2018-05-10T07:13:09.172Z,74.58
2018-05-10T07:15:38.307Z,73.93
2018-05-10T07:18:07.396Z,75.27
2018-05-10T07:20:36.459Z,73.26
2018-05-10T07:23:05.949Z,71.03
2018-05-10T07:25:35.149Z,75.87
2018-05-10T07:28:04.180Z,78.37
2018-05-10T07:30:33.416Z,78.92
2018-05-10T07:33:03.271Z,78.10
2018-05-10T07:35:33.592Z,78.87
2018-05-10T07:38:02.634Z,77.39
2018-05-10T07:40:31.624Z,80.34
2018-05-10T07:43:00.866Z,79.72
2018-05-10T07:45:30.295Z,78.96
2018-05-10T07:47:59.302Z,78.39
2018-05-10T07:50:28.348Z,77.81
2018-05-10T07:52:57.439Z,75.44
2018-05-10T07:55:26.989Z,74.07
2018-05-10T07:57:56.399Z,69.50
2018-05-10T08:00:25.693Z,65.71
2018-05-10T08:02:54.756Z,67.70
2018-05-10T08:05:23.904Z,62.89
2018-05-10T08:07:53.244Z,64.98
2018-05-10T08:10:22.529Z,64.73
2018-05-10T08:12:51.660Z,64.33
2018-05-10T08:15:20.947Z,63.17
2018-05-10T08:17:50.398Z,60.28
2018-05-10T08:20:19.523Z,62.40
2018-05-10T08:22:48.644Z,59.27
2018-05-10T08:25:17.965Z,62.74
2018-05-10T08:27:47.068Z,59.43
2018-05-10T08:30:16.683Z,58.05
2018-05-10T08:32:45.996Z,63.04
2018-05-10T08:35:15.270Z,62.86
2018-05-10T08:37:44.805Z,58.89
2018-05-10T08:40:14.249Z,58.17
2018-05-10T08:42:44.208Z,59.83
2018-05-10T08:45:14.082Z,57.76
2018-05-10T08:47:43.277Z,53.46
2018-05-10T08:50:12.293Z,55.91
2018-05-10T08:52:41.692Z,55.89
2018-05-10T08:55:10.791Z,55.39
2018-05-10T08:57:40.038Z,58.46
2018-05-10T09:00:14.642Z,58.24
2018-05-10T09:02:43.780Z,57.33
2018-05-10T09:05:12.878Z,58.30
2018-05-10T09:07:42.255Z,58.42
2018-05-10T09:10:11.537Z,56.05
2018-05-10T09:12:40.802Z,54.26
2018-05-10T09:15:09.889Z,52.93
2018-05-10T09:17:39.817Z,53.99
2018-05-10T09:20:09.199Z,52.43
2018-05-10T09:22:38.472Z,53.49
2018-05-10T09:25:08.054Z,52.55
2018-05-10T09:27:37.377Z,52.30
2018-05-10T09:30:06.588Z,54.44
2018-05-10T09:32:35.984Z,54.81
2018-05-10T09:35:05.331Z,58.08
2018-05-10T09:37:34.778Z,60.52
2018-05-10T09:40:04.194Z,58.15
2018-05-10T09:42:33.380Z,62.30
2018-05-10T09:45:02.776Z,64.18
2018-05-10T09:47:31.997Z,65.72
2018-05-10T09:50:01.157Z,66.57
2018-05-10T09:52:30.226Z,67.00
2018-05-10T09:54:59.336Z,67.65
2018-05-10T09:57:29.346Z,67.59
2018-05-10T09:59:59.273Z,68.97
2018-05-10T10:02:28.584Z,67.69
2018-05-10T10:04:58.001Z,66.13
2018-05-10T10:07:27.528Z,65.90
2018-05-10T10:10:04.125Z,67.31
2018-05-10T10:12:33.284Z,64.49
2018-05-10T10:15:02.693Z,62.92
2018-05-10T10:17:31.801Z,62.53
2018-05-10T10:20:01.078Z,63.56
2018-05-10T10:22:30.482Z,64.45
2018-05-10T10:24:59.557Z,63.39
2018-05-10T10:27:28.963Z,61.52
2018-05-10T10:29:58.026Z,62.58
2018-05-10T10:32:27.235Z,61.09
2018-05-10T10:34:56.320Z,61.51
2018-05-10T10:37:25.850Z,64.08
2018-05-10T10:39:55.326Z,60.71
2018-05-10T10:42:24.756Z,60.39
2018-05-10T10:44:53.929Z,61.03
2018-05-10T10:47:23.023Z,64.59
2018-05-10T10:49:52.242Z,63.68
2018-05-10T10:52:21.862Z,62.02
2018-05-10T10:54:52.329Z,60.02
2018-05-10T10:57:21.930Z,60.19
2018-05-10T10:59:51.480Z,60.46
2018-05-10T11:02:20.810Z,61.88
2018-05-10T11:04:49.893Z,62.21
2018-05-10T11:07:19.250Z,60.68
2018-05-10T11:09:48.874Z,60.95
2018-05-10T11:12:18.306Z,60.36
2018-05-10T11:14:47.458Z,57.11
2018-05-10T11:17:16.658Z,55.35
2018-05-10T11:19:45.728Z,52.60
2018-05-10T11:22:15.425Z,51.93
2018-05-10T11:24:44.443Z,53.16
2018-05-10T11:27:13.867Z,56.75
2018-05-10T11:29:43.285Z,57.13
2018-05-10T11:32:12.689Z,57.26
2018-05-10T11:34:41.965Z,55.37
2018-05-10T11:39:37.836Z,54.32
2018-05-10T11:42:07.752Z,54.98
2018-05-10T11:44:37.437Z,54.34
2018-05-10T11:47:06.589Z,52.59
2018-05-10T11:49:36.071Z,54.46
2018-05-10T11:52:05.324Z,51.40
2018-05-10T11:54:34.662Z,53.32
2018-05-10T11:57:03.824Z,54.62
2018-05-10T11:59:33.046Z,52.72
2018-05-10T12:02:02.139Z,51.22
2018-05-10T12:04:31.339Z,50.88
2018-05-10T12:07:00.432Z,48.12
2018-05-10T12:09:29.638Z,50.68
2018-05-10T12:11:58.773Z,51.01
2018-05-10T12:14:27.997Z,53.45
2018-05-10T12:16:57.084Z,52.22
2018-05-10T12:19:26.932Z,53.91
2018-05-10T12:21:56.012Z,52.35
2018-05-10T12:24:25.309Z,50.98
2018-05-10T12:26:54.642Z,49.95
2018-05-10T12:29:23.806Z,51.88
2018-05-10T12:31:53.713Z,52.20
2018-05-10T12:34:23.400Z,53.64
2018-05-10T12:36:52.784Z,54.98
2018-05-10T12:39:21.849Z,53.23
2018-05-10T12:41:51.491Z,55.72
2018-05-10T12:44:20.646Z,55.69
2018-05-10T12:46:50.065Z,54.88
2018-05-10T12:49:19.112Z,53.90
2018-05-10T12:51:48.304Z,54.89
2018-05-10T12:54:17.793Z,56.60
2018-05-10T12:56:47.590Z,55.41
2018-05-10T12:59:17.113Z,57.17
2018-05-10T13:01:46.404Z,58.39
2018-05-10T13:04:15.584Z,57.60
2018-05-10T13:06:45.102Z,56.48
2018-05-10T13:09:14.521Z,55.34
2018-05-10T13:11:43.544Z,54.71
2018-05-10T13:14:12.908Z,56.49
2018-05-10T13:16:42.324Z,56.60
2018-05-10T13:19:11.336Z,55.05
2018-05-10T13:21:40.651Z,58.67
2018-05-10T13:24:09.736Z,57.42
2018-05-10T13:26:39.210Z,54.01
2018-05-10T13:29:08.440Z,53.12
2018-05-10T13:31:37.944Z,46.49
2018-05-10T13:34:07.385Z,45.77
2018-05-10T13:36:36.408Z,51.75
2018-05-10T13:39:06.097Z,53.32
2018-05-10T13:41:35.244Z,51.04
2018-05-10T13:44:04.598Z,50.31
2018-05-10T13:46:34.548Z,49.98
2018-05-10T13:49:03.627Z,54.03
2018-05-10T13:51:33.616Z,54.88
2018-05-10T13:54:03.458Z,56.36
2018-05-10T13:56:33.436Z,55.51
2018-05-10T13:59:02.737Z,55.89
2018-05-10T14:01:32.224Z,57.36
2018-05-10T14:04:01.557Z,58.02
2018-05-10T14:06:30.621Z,58.32
2018-05-10T14:08:59.793Z,61.52
2018-05-10T14:11:28.772Z,61.41
2018-05-10T14:13:57.884Z,58.75
2018-05-10T14:16:27.177Z,55.92
2018-05-10T14:18:56.530Z,53.66
2018-05-10T14:21:25.702Z,55.38
2018-05-10T14:23:55.091Z,54.27
2018-05-10T14:26:24.202Z,53.29
2018-05-10T14:28:53.412Z,52.78
2018-05-10T14:31:22.807Z,56.90
2018-05-10T14:33:51.959Z,57.60
2018-05-10T14:36:21.165Z,56.90
2018-05-10T14:38:50.694Z,57.86
2018-05-10T14:41:19.942Z,56.89
2018-05-10T14:43:48.993Z,56.89
2018-05-10T14:46:18.292Z,58.46
2018-05-10T14:48:47.508Z,56.79
2018-05-10T14:51:16.599Z,58.20
2018-05-10T14:53:45.973Z,57.48
2018-05-10T14:56:15.276Z,58.78
2018-05-10T14:58:44.471Z,60.30
2018-05-10T15:01:13.714Z,62.91
2018-05-10T15:03:42.867Z,62.06
2018-05-10T15:06:12.012Z,62.26
2018-05-10T15:08:41.233Z,63.78
2018-05-10T15:11:10.608Z,65.74
2018-05-10T15:13:39.991Z,65.36
2018-05-10T15:16:09.729Z,66.75
2018-05-10T15:18:38.902Z,64.95
2018-05-10T15:21:08.573Z,65.66
2018-05-10T15:23:37.917Z,67.04
2018-05-10T15:26:07.385Z,69.44
2018-05-10T15:28:36.515Z,72.06
2018-05-10T15:31:06.080Z,69.79
2018-05-10T15:33:35.262Z,71.48
2018-05-10T15:36:04.874Z,71.17
2018-05-10T15:38:34.900Z,72.28
2018-05-10T15:41:04.082Z,70.89
2018-05-10T15:43:33.181Z,71.48
2018-05-10T15:46:03.396Z,75.07
2018-05-10T15:48:32.584Z,75.19
2018-05-10T15:51:01.850Z,74.74
2018-05-10T15:53:31.153Z,76.18
2018-05-10T15:56:00.245Z,77.09
2018-05-10T15:58:29.714Z,76.04
2018-05-10T16:00:58.916Z,76.62
2018-05-10T16:03:28.374Z,77.43
2018-05-10T16:05:57.432Z,79.86
2018-05-10T16:08:26.826Z,77.36
2018-05-10T16:10:55.928Z,78.97
2018-05-10T16:13:25.375Z,77.88
2018-05-10T16:15:54.638Z,76.84
2018-05-10T16:18:23.692Z,76.76
2018-05-10T16:20:52.732Z,77.40
2018-05-10T16:23:21.925Z,79.11
2018-05-10T16:25:51.084Z,80.52
2018-05-10T16:28:20.576Z,80.89
2018-05-10T16:30:49.713Z,78.17
2018-05-10T16:33:18.688Z,80.21
2018-05-10T16:35:48.104Z,79.72
2018-05-10T16:38:17.113Z,78.78
2018-05-10T16:40:46.344Z,77.76
2018-05-10T16:43:15.484Z,80.23
2018-05-10T16:45:44.480Z,80.41
2018-05-10T16:48:13.893Z,82.28
2018-05-10T16:50:43.072Z,83.86
2018-05-10T16:53:12.307Z,82.11
2018-05-10T16:55:42.207Z,82.03
2018-05-10T16:58:11.454Z,81.35
2018-05-10T17:00:40.621Z,80.49
2018-05-10T17:03:09.596Z,80.91
2018-05-10T17:05:38.834Z,80.94
2018-05-10T17:08:08.013Z,81.96
2018-05-10T17:10:37.205Z,82.83
2018-05-10T17:13:06.374Z,82.92
2018-05-10T17:15:35.634Z,85.37
2018-05-10T17:18:04.775Z,92.71
2018-05-10T17:20:33.927Z,91.51
2018-05-10T17:23:03.266Z,92.25
2018-05-10T17:25:32.311Z,95.94
2018-05-10T17:28:01.369Z,98.57
2018-05-10T17:30:30.420Z,97.04
2018-05-10T17:32:59.585Z,96.52
2018-05-10T17:35:28.637Z,98.68
2018-05-10T17:37:57.873Z,99.35
2018-05-10T17:40:27.004Z,100.00
2018-05-10T17:42:56.228Z,100.00
2018-05-10T17:45:25.264Z,100.00
2018-05-10T17:47:54.542Z,100.00
2018-05-10T17:50:23.727Z,100.00
2018-05-10T17:52:52.732Z,100.00
2018-05-10T17:55:21.938Z,100.00
2018-05-10T17:57:51.190Z,100.00
2018-05-10T18:00:20.502Z,100.00
2018-05-10T18:02:49.553Z,100.00
2018-05-10T18:05:18.686Z,100.00
2018-05-10T18:07:47.881Z,100.00
2018-05-10T18:10:17.034Z,100.00
2018-05-10T18:12:46.139Z,100.00
2018-05-10T18:15:15.494Z,100.00
2018-05-10T18:17:44.636Z,100.00
2018-05-10T18:20:13.769Z,100.00
2018-05-10T18:22:42.985Z,100.00
2018-05-10T18:25:12.013Z,100.00
2018-05-10T18:27:41.113Z,100.00
2018-05-10T18:30:10.100Z,100.00
2018-05-10T18:32:39.104Z,100.00
2018-05-10T18:35:08.157Z,100.00
2018-05-10T18:37:37.018Z,100.00
2018-05-10T18:40:06.056Z,100.00
2018-05-10T18:42:34.895Z,100.00
2018-05-10T18:45:03.754Z,100.00
2018-05-10T18:47:32.954Z,100.00
2018-05-10T18:50:02.123Z,100.00
2018-05-10T18:52:31.189Z,100.00
2018-05-10T18:55:00.241Z,100.00
2018-05-10T18:57:29.024Z,100.00
2018-05-10T18:59:57.992Z,100.00
2018-05-10T19:02:26.969Z,100.00
2018-05-10T19:04:55.980Z,100.00
2018-05-10T19:07:24.959Z,100.00
2018-05-10T19:09:53.914Z,100.00
2018-05-10T19:12:22.848Z,100.00
2018-05-10T19:14:51.724Z,100.00
2018-05-10T19:17:20.769Z,100.00
2018-05-10T19:19:49.708Z,100.00
2018-05-10T19:22:18.708Z,100.00
2018-05-10T19:24:47.815Z,100.00
2018-05-10T19:27:16.752Z,100.00
2018-05-10T19:29:45.800Z,100.00
2018-05-10T19:32:14.842Z,100.00
2018-05-10T19:34:43.876Z,100.00
2018-05-10T19:37:12.719Z,100.00
2018-05-10T19:39:41.773Z,100.00
2018-05-10T19:42:10.968Z,100.00
2018-05-10T19:44:39.957Z,100.00
2018-05-10T19:47:09.048Z,100.00
2018-05-10T19:49:37.912Z,100.00
2018-05-10T19:52:07.116Z,100.00
2018-05-10T19:54:36.329Z,100.00
2018-05-10T19:57:05.290Z,100.00
2018-05-10T19:59:34.281Z,100.00
2018-05-10T20:02:03.177Z,100.00
2018-05-10T20:04:32.138Z,100.00
2018-05-10T20:07:01.232Z,100.00
2018-05-10T20:09:30.457Z,100.00
2018-05-10T20:11:59.523Z,100.00
2018-05-10T20:14:28.400Z,100.00
2018-05-10T20:16:57.801Z,100.00
2018-05-10T20:19:26.849Z,100.00
2018-05-10T20:21:55.932Z,100.00
2018-05-10T20:24:24.723Z,100.00
2018-05-10T20:26:54.002Z,99.65
2018-05-10T20:29:23.041Z,100.00
2018-05-10T20:31:52.001Z,100.00
2018-05-10T20:34:20.903Z,100.00
2018-05-10T20:36:49.912Z,98.84
2018-05-10T20:39:19.048Z,99.47
2018-05-10T20:41:47.912Z,96.65
2018-05-10T20:44:16.765Z,97.94
2018-05-10T20:46:45.630Z,99.44
2018-05-10T20:49:14.519Z,98.78
2018-05-10T20:51:43.517Z,100.00
2018-05-10T20:54:12.648Z,98.48
2018-05-10T20:56:41.429Z,100.00
2018-05-10T20:59:10.696Z,100.00
2018-05-10T21:01:39.580Z,99.99
2018-05-10T21:04:08.688Z,100.00
2018-05-10T21:06:37.688Z,100.00
2018-05-10T21:09:06.626Z,100.00
2018-05-10T21:11:35.444Z,100.00
2018-05-10T21:14:04.424Z,100.00
2018-05-10T21:16:33.527Z,100.00
2018-05-10T21:19:02.477Z,100.00
2018-05-10T21:21:31.344Z,99.29
2018-05-10T21:24:00.608Z,100.00
2018-05-10T21:26:29.631Z,100.00
2018-05-10T21:28:58.520Z,100.00
2018-05-10T21:31:27.340Z,99.51
2018-05-10T21:33:56.317Z,100.00
2018-05-10T21:36:25.377Z,100.00
2018-05-10T21:38:54.488Z,100.00
2018-05-10T21:41:23.296Z,100.00
2018-05-10T21:43:52.297Z,100.00
2018-05-10T21:46:21.312Z,100.00
2018-05-10T21:48:50.272Z,100.00
2018-05-10T21:51:19.289Z,100.00
2018-05-10T21:53:48.577Z,100.00
2018-05-10T21:56:17.625Z,100.00
2018-05-10T21:58:47.172Z,100.00
2018-05-10T22:01:16.218Z,100.00
2018-05-10T22:03:45.734Z,100.00
2018-05-10T22:06:14.672Z,100.00
2018-05-10T22:08:44.029Z,99.35
2018-05-10T22:11:13.196Z,100.00
2018-05-10T22:13:42.414Z,99.94
2018-05-10T22:16:11.681Z,99.13
2018-05-10T22:18:41.000Z,98.83
2018-05-10T22:21:10.626Z,98.93
2018-05-10T22:23:39.740Z,99.44
2018-05-10T22:26:08.838Z,96.52
2018-05-10T22:28:37.991Z,98.16
2018-05-10T22:31:06.855Z,98.04
2018-05-10T22:33:35.648Z,97.66
2018-05-10T22:36:04.551Z,98.90
2018-05-10T22:38:33.464Z,98.97
2018-05-10T22:41:02.602Z,97.37
2018-05-10T22:43:31.632Z,96.97
2018-05-10T22:46:00.919Z,98.15
2018-05-10T22:48:29.931Z,97.86
2018-05-10T22:50:59.080Z,99.08
2018-05-10T22:53:28.312Z,99.09
2018-05-10T22:55:57.227Z,98.50
2018-05-10T22:58:26.321Z,97.98
2018-05-10T23:00:55.370Z,97.62
2018-05-10T23:03:24.617Z,97.61
2018-05-10T23:05:53.705Z,98.05
2018-05-10T23:08:22.911Z,97.32
2018-05-10T23:10:52.209Z,96.88
2018-05-10T23:13:21.406Z,97.83
2018-05-10T23:15:50.627Z,98.27
2018-05-10T23:18:19.684Z,96.70
2018-05-10T23:20:48.856Z,98.14
2018-05-10T23:23:17.916Z,98.18
2018-05-10T23:25:47.077Z,97.34
2018-05-10T23:28:16.208Z,98.23
2018-05-10T23:30:45.190Z,95.83
2018-05-10T23:33:14.368Z,97.49
2018-05-10T23:35:43.345Z,97.17
2018-05-10T23:38:12.487Z,95.08
2018-05-10T23:40:41.780Z,95.90
2018-05-10T23:43:10.824Z,96.64
2018-05-10T23:45:40.293Z,96.43
2018-05-10T23:48:09.471Z,95.46
2018-05-10T23:50:38.528Z,95.97
2018-05-10T23:53:07.608Z,96.24
2018-05-10T23:55:36.533Z,95.78
2018-05-10T23:58:05.674Z,96.84
